Terminal Aerodrome Forecast
Issued by NWS

Home | Current Version | Previous Version | Text Only | Print | Product List | Glossary On
Versions: 1 2 3 4 5 6 7 8 9 10 11 12 13
000
FTUS45 KABQ 241743
TAFGUP
TAF
KGUP 241743Z 2418/2518 VRB05KT P6SM FEW100
     FM241900 32010KT P6SM SCT100
      TEMPO 2421/2424 VRB20G30KT 6SM -TSRA BKN080CB
     FM250200 VRB05KT P6SM VCSH SCT100 BKN150
     FM250900 VRB03KT P6SM BKN150
     FM251700 25008KT P6SM FEW150=

USA.gov is the U.S. government's official web portal to all federal, state and local government web resources and services.